Terminal Aerodrome Forecast
Issued by NWS Binghamton, NY

Home | Current Version | Previous Version | Text Only | Print | Product List | Glossary On
Versions: 1 2 3 4 5 6 7 8 9 10 11 12 13 14 15 16 17 18 19
540
FTUS41 KBGM 221129
TAFBGM
TAF
KBGM 221129Z 2212/2312 17005KT 1/2SM -DZ FG OVC002
      TEMPO 2215/2218 1 1/2SM BR OVC005
     FM221800 15008KT 2SM -SHRA BR OVC008
     FM230000 16010KT 1SM -DZ BR OVC005
     FM230900 17012KT 2SM RA BR OVC005=

USA.gov is the U.S. government's official web portal to all federal, state and local government web resources and services.